Time;durP1;ratioP1;P1;durP2;ratioP2;P2;SDS_P1;SDS_P2;PMS_P1;PMS_P2;Temp;Humidity;BMP_temperature;BMP_pressure;BME280_temperature;BME280_humidity;BME280_pressure;Samples;Min_cycle;Max_cycle;Signal;HPM_P1;HPM_P2
2023/04/04 00:04:43;;;;;;;8.00;4.20;;;;;;;-0.45;70.86;99520.87;218579;1302;22539;-76
2023/04/04 00:09:46;;;;;;;6.80;5.00;;;;;;;-0.53;70.48;99514.45;217959;1302;24309;-75
2023/04/04 00:14:50;;;;;;;9.90;5.20;;;;;;;-0.60;70.65;99507.48;217696;1302;24207;-74
2023/04/04 00:19:52;;;;;;;8.40;4.60;;;;;;;-0.69;71.18;99500.99;218382;1299;22739;-75
2023/04/04 00:24:56;;;;;;;6.20;4.20;;;;;;;-0.78;71.41;99502.45;218140;1299;24329;-76
2023/04/04 00:29:58;;;;;;;8.80;4.50;;;;;;;-0.86;71.55;99497.07;218404;1301;25514;-75
2023/04/04 00:35:01;;;;;;;9.70;4.90;;;;;;;-0.92;71.52;99495.25;218014;1299;22918;-76
2023/04/04 00:40:05;;;;;;;9.80;5.10;;;;;;;-0.97;71.69;99495.55;218711;1302;22675;-76
2023/04/04 00:45:09;;;;;;;7.40;5.00;;;;;;;-1.02;71.84;99493.43;218716;1301;26200;-76
2023/04/04 00:50:11;;;;;;;10.10;5.60;;;;;;;-1.07;71.88;99492.20;218003;1298;23677;-76
2023/04/04 00:55:14;;;;;;;8.20;5.30;;;;;;;-1.13;72.19;99494.80;218241;1301;22512;-76
2023/04/04 01:00:16;;;;;;;5.60;4.10;;;;;;;-1.18;72.65;99497.55;218357;1299;24240;-76
2023/04/04 01:05:19;;;;;;;6.70;4.60;;;;;;;-1.20;72.33;99502.70;218881;1299;24256;-76
2023/04/04 01:10:28;;;;;;;8.90;4.60;;;;;;;-1.22;72.50;99499.89;218441;1302;24249;-76
2023/04/04 01:15:32;;;;;;;7.20;4.10;;;;;;;-1.26;72.60;99497.70;218079;1301;25441;-76
2023/04/04 01:20:51;;;;;;;8.60;4.60;;;;;;;-1.31;72.37;99501.87;218390;1302;23821;-76
2023/04/04 01:26:27;;;;;;;8.20;4.70;;;;;;;-1.37;72.43;99495.67;217981;1301;24277;-75
2023/04/04 01:31:39;;;;;;;6.80;4.60;;;;;;;-1.45;72.87;99493.02;217473;1302;22660;-76
2023/04/04 01:37:31;;;;;;;7.70;4.80;;;;;;;-1.53;73.08;99499.59;218830;1302;22556;-77
2023/04/04 01:42:35;;;;;;;5.80;4.20;;;;;;;-1.63;73.03;99505.39;216838;1308;23099;-75
2023/04/04 01:47:39;;;;;;;7.80;4.50;;;;;;;-1.72;73.34;99502.48;218140;1302;24231;-76
2023/04/04 01:52:43;;;;;;;7.80;4.60;;;;;;;-1.80;73.32;99503.48;218490;1302;22767;-76
2023/04/04 01:57:57;;;;;;;9.50;5.30;;;;;;;-1.87;73.38;99504.56;218388;1302;22663;-77
2023/04/04 02:03:02;;;;;;;7.70;4.80;;;;;;;-1.93;73.67;99511.35;218711;1302;24256;-76
2023/04/04 02:08:06;;;;;;;8.40;5.00;;;;;;;-1.99;73.80;99514.65;218376;1302;22674;-77
2023/04/04 02:13:14;;;;;;;8.70;4.60;;;;;;;-2.03;73.98;99511.80;218035;1302;22554;-76
2023/04/04 02:18:19;;;;;;;7.10;4.40;;;;;;;-2.06;74.10;99511.27;218616;1299;23000;-75
2023/04/04 02:23:21;;;;;;;9.20;5.10;;;;;;;-2.09;74.10;99514.20;218176;1296;22559;-76
2023/04/04 02:28:23;;;;;;;9.00;5.40;;;;;;;-2.13;74.30;99514.64;218152;1286;25997;-75
2023/04/04 02:33:26;;;;;;;9.10;5.20;;;;;;;-2.17;74.60;99515.85;218738;1299;25554;-76
2023/04/04 02:38:30;;;;;;;11.10;6.40;;;;;;;-2.18;74.56;99515.43;218588;1302;25599;-75
2023/04/04 02:43:37;;;;;;;9.10;5.10;;;;;;;-2.20;74.29;99516.73;217946;1281;23086;-75
2023/04/04 02:48:40;;;;;;;11.60;5.80;;;;;;;-2.21;74.87;99514.19;218496;1299;22660;-75
2023/04/04 02:53:44;;;;;;;8.70;5.10;;;;;;;-2.22;74.68;99512.17;218689;1302;25456;-76
2023/04/04 02:58:54;;;;;;;8.70;5.60;;;;;;;-2.24;75.14;99519.25;218914;1301;22602;-76
2023/04/04 03:03:57;;;;;;;7.80;5.10;;;;;;;-2.28;75.06;99513.45;218371;1302;24274;-76
2023/04/04 03:09:03;;;;;;;8.30;4.40;;;;;;;-2.32;75.24;99511.75;218399;1300;22860;-75
2023/04/04 03:14:07;;;;;;;8.80;5.80;;;;;;;-2.37;75.31;99519.98;218317;1302;22627;-75
2023/04/04 03:19:11;;;;;;;10.10;5.60;;;;;;;-2.42;75.45;99522.86;218352;1302;22675;-76
2023/04/04 03:24:14;;;;;;;8.20;5.10;;;;;;;-2.47;75.32;99521.08;217996;1296;24307;-76
2023/04/04 03:29:17;;;;;;;10.10;5.30;;;;;;;-2.52;75.51;99525.16;217729;1302;22638;-76
2023/04/04 03:34:19;;;;;;;10.10;5.90;;;;;;;-2.56;75.68;99517.48;218320;1302;23824;-75
2023/04/04 03:39:30;;;;;;;7.90;5.00;;;;;;;-2.60;75.87;99522.20;218595;1299;22535;-76
2023/04/04 03:44:32;;;;;;;10.40;5.80;;;;;;;-2.65;76.01;99517.64;218328;1302;24272;-75
2023/04/04 03:49:34;;;;;;;10.90;7.10;;;;;;;-2.68;76.03;99521.30;218600;1302;24288;-74
2023/04/04 03:54:36;;;;;;;12.50;6.90;;;;;;;-2.68;76.30;99517.49;217904;1302;24279;-74
2023/04/04 03:59:39;;;;;;;12.90;6.50;;;;;;;-2.68;76.24;99519.70;217905;1299;24275;-74
2023/04/04 04:04:41;;;;;;;11.50;6.40;;;;;;;-2.66;76.35;99517.20;217551;1302;22750;-74
2023/04/04 04:09:43;;;;;;;11.30;6.00;;;;;;;-2.67;76.51;99515.18;217496;1302;24781;-73
2023/04/04 04:14:46;;;;;;;9.90;4.70;;;;;;;-2.68;76.53;99510.24;217639;1289;24435;-73
2023/04/04 04:19:48;;;;;;;11.50;5.80;;;;;;;-2.69;76.72;99508.05;217593;1302;22586;-75
2023/04/04 04:24:51;;;;;;;10.50;6.00;;;;;;;-2.69;76.38;99501.49;218013;1300;24316;-74
2023/04/04 04:29:53;;;;;;;9.20;5.20;;;;;;;-2.67;76.74;99505.47;218091;1298;22597;-73
2023/04/04 04:34:56;;;;;;;11.00;5.80;;;;;;;-2.60;76.68;99503.56;217717;1302;23012;-72
2023/04/04 04:40:02;;;;;;;9.80;5.20;;;;;;;-2.50;76.68;99495.23;217978;1299;25466;-72
2023/04/04 04:45:21;;;;;;;11.70;6.40;;;;;;;-2.39;76.79;99496.86;217640;1299;22691;-74
2023/04/04 04:50:27;;;;;;;10.50;7.10;;;;;;;-2.30;76.33;99503.02;217970;1300;24271;-72
2023/04/04 04:55:30;;;;;;;9.00;5.00;;;;;;;-2.20;76.44;99504.84;217568;1302;22877;-74
2023/04/04 05:00:37;;;;;;;11.50;5.30;;;;;;;-2.09;75.98;99504.55;217678;1302;22767;-73
2023/04/04 05:05:44;;;;;;;8.20;4.90;;;;;;;-1.98;75.70;99515.44;217693;1299;24345;-74
2023/04/04 05:10:49;;;;;;;7.40;4.30;;;;;;;-1.87;75.53;99514.98;217425;1302;23024;-73
2023/04/04 05:15:54;;;;;;;7.90;4.60;;;;;;;-1.77;75.46;99519.19;217468;1302;25034;-73
2023/04/04 05:20:56;;;;;;;8.20;4.90;;;;;;;-1.67;75.13;99516.38;217579;1302;22558;-73
2023/04/04 05:26:01;;;;;;;16.30;5.80;;;;;;;-1.61;74.74;99518.37;217761;1299;25600;-73
2023/04/04 05:31:07;;;;;;;7.90;4.70;;;;;;;-1.57;74.61;99520.88;217457;1302;22566;-72
2023/04/04 05:36:11;;;;;;;8.40;4.80;;;;;;;-1.51;74.46;99528.30;217521;1301;22665;-75
2023/04/04 05:41:21;;;;;;;9.60;5.50;;;;;;;-1.47;74.15;99532.50;217615;1302;22694;-73
2023/04/04 05:46:24;;;;;;;5.90;4.90;;;;;;;-1.39;73.87;99541.03;217992;1296;22757;-75
2023/04/04 05:51:27;;;;;;;8.50;5.30;;;;;;;-1.32;73.69;99532.64;218390;1299;25350;-74
2023/04/04 05:56:40;;;;;;;8.40;4.80;;;;;;;-1.20;73.61;99545.36;218522;1301;22548;-73
2023/04/04 06:01:57;;;;;;;9.80;4.90;;;;;;;-1.09;73.15;99541.41;218844;1287;22593;-74
2023/04/04 06:07:15;;;;;;;9.80;4.90;;;;;;;-0.97;72.85;99541.69;219117;1282;25240;-75
2023/04/04 06:12:17;;;;;;;8.80;5.10;;;;;;;-0.83;72.47;99538.54;218632;1283;23830;-73
2023/04/04 06:17:20;;;;;;;9.00;4.00;;;;;;;-0.79;71.41;99536.23;218579;1289;22703;-73
2023/04/04 06:22:22;;;;;;;9.10;4.20;;;;;;;-0.76;71.56;99539.11;218171;1286;22869;-74
2023/04/04 06:27:27;;;;;;;11.00;4.20;;;;;;;-0.68;71.45;99532.73;218066;1296;22550;-73
2023/04/04 06:32:30;;;;;;;5.40;3.20;;;;;;;-0.65;71.15;99538.61;219573;1296;137746;-75
2023/04/04 06:37:33;;;;;;;4.50;2.30;;;;;;;-0.65;70.99;99526.88;218218;1295;138695;-76
2023/04/04 06:42:49;;;;;;;4.30;2.30;;;;;;;-0.64;70.05;99530.95;218173;1281;25454;-75
2023/04/04 06:48:00;;;;;;;4.80;2.50;;;;;;;-0.60;69.83;99532.27;218012;1283;137275;-74
2023/04/04 06:53:02;;;;;;;6.10;2.70;;;;;;;-0.57;69.75;99530.11;218019;1290;139638;-74
2023/04/04 06:58:05;;;;;;;4.70;2.30;;;;;;;-0.53;69.27;99525.69;219955;1287;138754;-76
2023/04/04 07:03:08;;;;;;;5.30;2.20;;;;;;;-0.43;69.17;99530.61;222293;1302;138645;-76
2023/04/04 07:08:10;;;;;;;3.30;2.20;;;;;;;-0.33;68.84;99520.11;222581;1295;137687;-76
2023/04/04 07:13:13;;;;;;;4.40;2.30;;;;;;;-0.22;67.99;99521.27;222816;1292;138827;-75
2023/04/04 07:18:17;;;;;;;3.70;2.20;;;;;;;-0.13;67.30;99529.15;220474;1292;22658;-78
2023/04/04 07:23:21;;;;;;;2.90;2.00;;;;;;;-0.04;66.96;99531.29;219847;1287;138298;-74
2023/04/04 07:28:23;;;;;;;4.80;2.40;;;;;;;0.08;66.48;99521.85;221562;1280;138693;-75
2023/04/04 07:33:26;;;;;;;4.50;2.10;;;;;;;0.22;66.84;99518.13;221826;1286;138773;-75
2023/04/04 07:38:28;;;;;;;5.40;2.50;;;;;;;0.43;66.87;99516.64;221619;1295;138813;-75
2023/04/04 07:43:34;;;;;;;4.60;2.70;;;;;;;0.67;66.79;99520.15;221654;1280;138888;-76
2023/04/04 07:48:36;;;;;;;3.80;2.70;;;;;;;0.83;65.77;99523.02;221714;1293;22803;-76
2023/04/04 07:53:43;;;;;;;10.60;6.60;;;;;;;0.89;65.67;99525.17;221844;1279;137290;-77
2023/04/04 07:58:46;;;;;;;3.40;2.20;;;;;;;1.15;66.13;99518.48;221555;1292;139228;-77
2023/04/04 08:03:49;;;;;;;3.80;2.20;;;;;;;1.49;64.82;99516.17;221669;1288;138638;-77
2023/04/04 08:08:51;;;;;;;3.70;1.90;;;;;;;1.83;64.66;99516.44;221662;1302;138983;-76
2023/04/04 08:13:57;;;;;;;3.60;1.90;;;;;;;2.19;64.01;99511.94;222556;1293;139264;-77
2023/04/04 08:19:02;;;;;;;4.80;2.20;;;;;;;2.49;63.55;99507.04;220829;1301;22655;-76
2023/04/04 08:24:05;;;;;;;2.90;1.70;;;;;;;2.82;62.95;99503.68;218251;1296;138218;-75
2023/04/04 08:29:07;;;;;;;9.60;6.90;;;;;;;3.22;62.73;99504.48;218241;1296;138615;-76
2023/04/04 08:34:10;;;;;;;3.50;2.10;;;;;;;3.60;62.16;99504.98;220537;1301;139074;-75
2023/04/04 08:39:12;;;;;;;2.80;1.70;;;;;;;3.70;60.46;99503.48;220019;1296;138217;-76
2023/04/04 08:44:19;;;;;;;3.80;2.20;;;;;;;3.70;59.56;99500.61;219020;1298;138199;-76
2023/04/04 08:49:25;;;;;;;2.60;2.00;;;;;;;3.64;59.82;99498.25;218521;1287;138467;-76
2023/04/04 08:54:29;;;;;;;4.40;2.40;;;;;;;3.82;59.39;99478.80;218280;1290;22552;-76
2023/04/04 08:59:32;;;;;;;4.00;2.10;;;;;;;3.80;58.85;99484.36;218144;1280;137830;-76
2023/04/04 09:04:38;;;;;;;3.00;2.20;;;;;;;3.66;58.31;99491.15;217887;1283;137715;-76
2023/04/04 09:09:46;;;;;;;3.90;1.90;;;;;;;3.64;58.21;99485.38;217750;1293;137871;-75
2023/04/04 09:14:50;;;;;;;2.70;1.80;;;;;;;3.48;57.80;99486.52;218093;1301;138123;-75
2023/04/04 09:19:53;;;;;;;4.10;2.00;;;;;;;3.40;57.97;99489.05;218159;1301;137832;-75
2023/04/04 09:24:55;;;;;;;3.40;1.90;;;;;;;3.39;57.76;99490.41;218356;1287;22576;-75
2023/04/04 09:30:01;;;;;;;4.10;2.00;;;;;;;3.38;57.87;99486.14;218332;1289;137472;-75
2023/04/04 09:35:07;;;;;;;5.00;2.10;;;;;;;3.67;58.22;99477.98;219777;1280;137687;-76
2023/04/04 09:40:09;;;;;;;3.10;1.90;;;;;;;3.93;57.74;99477.34;219014;1295;138113;-77
2023/04/04 09:45:14;;;;;;;3.90;2.20;;;;;;;4.11;57.48;99477.39;217910;1294;137961;-77
2023/04/04 09:50:29;;;;;;;2.80;2.40;;;;;;;4.11;57.06;99478.64;218777;1294;137799;-76
2023/04/04 09:55:36;;;;;;;5.00;2.60;;;;;;;4.28;56.63;99474.91;219769;1286;138491;-74
2023/04/04 10:00:50;;;;;;;5.00;3.00;;;;;;;4.35;56.65;99478.84;218247;1295;24234;-76
2023/04/04 10:06:04;;;;;;;6.00;2.60;;;;;;;4.19;56.65;99484.86;218552;1296;137514;-79
2023/04/04 10:11:09;;;;;;;5.40;2.40;;;;;;;3.87;56.00;99480.31;218700;1293;137715;-78
2023/04/04 10:16:14;;;;;;;4.60;2.60;;;;;;;3.85;56.62;99473.14;218015;1296;137876;-78
2023/04/04 10:21:21;;;;;;;3.50;2.30;;;;;;;4.01;56.65;99475.15;222153;1293;267565;-78
2023/04/04 10:26:25;;;;;;;3.20;2.10;;;;;;;4.06;56.19;99474.70;222332;1299;138777;-78
2023/04/04 10:31:32;;;;;;;3.50;2.10;;;;;;;4.17;56.04;99467.32;222285;1299;137797;-77
2023/04/04 10:36:49;;;;;;;4.30;2.20;;;;;;;4.26;56.20;99468.98;222613;1283;22713;-78
2023/04/04 10:42:13;;;;;;;3.90;2.20;;;;;;;4.30;55.92;99466.85;222226;1290;136697;-78
2023/04/04 10:47:24;;;;;;;6.10;2.40;;;;;;;4.34;55.69;99465.63;221354;1294;138023;-77
2023/04/04 10:52:30;;;;;;;2.50;1.80;;;;;;;4.34;55.47;99460.97;221930;1286;137909;-78
2023/04/04 10:57:43;;;;;;;4.00;2.20;;;;;;;4.41;55.48;99467.29;218784;1296;137857;-77
2023/04/04 11:02:51;;;;;;;3.00;2.20;;;;;;;4.59;55.40;99469.23;217712;1296;137806;-78
2023/04/04 11:08:04;;;;;;;3.50;2.20;;;;;;;4.85;54.58;99469.21;218076;1295;137812;-77
2023/04/04 11:13:15;;;;;;;3.80;2.10;;;;;;;4.97;53.66;99471.48;217834;1295;137833;-77
2023/04/04 11:18:31;;;;;;;2.90;2.00;;;;;;;4.87;53.82;99466.96;218254;1280;22491;-76
2023/04/04 11:24:13;;;;;;;4.30;2.10;;;;;;;4.88;54.13;99458.80;218074;1280;137470;-78
2023/04/04 11:29:21;;;;;;;3.30;1.80;;;;;;;4.84;53.48;99457.47;218250;1286;138142;-77
2023/04/04 11:34:31;;;;;;;4.10;2.10;;;;;;;4.79;53.88;99451.47;217895;1280;138020;-76
2023/04/04 11:39:56;;;;;;;3.00;2.50;;;;;;;4.75;54.07;99442.67;218342;1296;138245;-78
2023/04/04 11:45:19;;;;;;;3.60;2.10;;;;;;;4.60;53.69;99445.20;218141;1287;138102;-77
2023/04/04 11:50:22;;;;;;;2.80;1.90;;;;;;;4.65;54.11;99446.61;218190;1295;137849;-78
2023/04/04 11:55:49;;;;;;;3.10;2.10;;;;;;;4.85;54.13;99445.12;218211;1286;139388;-73
2023/04/04 12:00:53;;;;;;;4.50;1.90;;;;;;;5.07;53.76;99443.88;218115;1294;22551;-76
2023/04/04 12:06:01;;;;;;;;;;;;;;;5.02;53.34;99440.69;219066;1287;137914;-73
2023/04/04 12:11:10;;;;;;;4.60;2.10;;;;;;;4.85;53.07;99445.34;218767;1289;124159;-78
2023/04/04 12:16:13;;;;;;;4.80;2.00;;;;;;;4.65;53.46;99444.46;218986;1290;138055;-76
2023/04/04 12:21:16;;;;;;;5.40;2.00;;;;;;;4.69;53.55;99440.16;219072;1282;138384;-80
2023/04/04 12:26:28;;;;;;;5.50;1.80;;;;;;;4.52;53.34;99439.52;218107;1283;137858;-82
2023/04/04 12:31:41;;;;;;;2.90;1.70;;;;;;;4.39;53.63;99443.98;218756;1290;137889;-81
2023/04/04 12:36:50;;;;;;;4.40;2.60;;;;;;;4.26;53.36;99446.64;218357;1296;22670;-82
2023/04/04 12:42:02;;;;;;;3.20;2.10;;;;;;;4.17;53.03;99442.21;218551;1280;137452;-82
2023/04/04 12:47:14;;;;;;;2.30;1.90;;;;;;;4.26;53.83;99453.26;218240;1301;137728;-81
2023/04/04 12:52:39;;;;;;;3.80;1.90;;;;;;;4.47;52.67;99451.08;217793;1297;136699;-79
2023/04/04 12:57:45;;;;;;;3.40;2.20;;;;;;;4.47;52.33;99447.61;217837;1299;137418;-79
2023/04/04 13:02:49;;;;;;;3.70;2.20;;;;;;;4.47;52.93;99447.23;218396;1299;138412;-79
2023/04/04 13:08:12;;;;;;;3.60;1.90;;;;;;;4.25;52.41;99449.16;221571;1301;137817;-81
2023/04/04 13:13:40;;;;;;;4.30;2.20;;;;;;;4.00;53.42;99447.80;218652;1299;137296;-80
2023/04/04 13:18:43;;;;;;;4.60;2.30;;;;;;;3.85;54.01;99446.64;219028;1286;24366;-79
2023/04/04 13:23:47;;;;;;;2.90;2.10;;;;;;;3.76;53.86;99458.89;218922;1298;137570;-80
2023/04/04 13:28:52;;;;;;;3.60;2.10;;;;;;;3.81;54.03;99464.21;218806;1294;136680;-83
2023/04/04 13:33:55;;;;;;;2.80;2.00;;;;;;;3.86;53.59;99467.48;218606;1291;138146;-82
2023/04/04 13:39:00;;;;;;;4.00;2.00;;;;;;;3.85;52.88;99468.63;218381;1285;138361;-84
2023/04/04 13:44:06;;;;;;;3.20;2.10;;;;;;;3.82;52.89;99463.09;221789;1302;136916;-78
2023/04/04 13:49:09;;;;;;;4.20;2.20;;;;;;;3.86;53.17;99457.55;221423;1299;137810;-79
2023/04/04 13:54:12;;;;;;;2.80;2.00;;;;;;;3.91;53.53;99453.83;221345;1286;22624;-77
2023/04/04 13:59:14;;;;;;;3.90;2.10;;;;;;;3.80;52.89;99457.19;218354;1280;137526;-77
2023/04/04 14:04:16;;;;;;;2.90;1.90;;;;;;;3.53;52.66;99451.66;218227;1295;22548;-76
2023/04/04 14:09:25;;;;;;;3.00;1.80;;;;;;;3.33;53.01;99449.64;218084;1285;23726;-77
2023/04/04 14:14:27;;;;;;;3.40;2.20;;;;;;;3.41;54.10;99450.19;218470;1290;22546;-77
2023/04/04 14:19:29;;;;;;;3.50;2.00;;;;;;;3.60;53.67;99445.80;218390;1287;22570;-76
2023/04/04 14:24:32;;;;;;;2.50;2.00;;;;;;;3.60;53.75;99445.15;218466;1298;22614;-77
2023/04/04 14:29:37;;;;;;;5.10;2.90;;;;;;;3.50;53.41;99442.80;218456;1290;22561;-77
2023/04/04 14:34:41;;;;;;;4.90;2.50;;;;;;;3.43;53.19;99441.17;218278;1300;22606;-76
2023/04/04 14:39:46;;;;;;;3.20;2.00;;;;;;;3.39;53.27;99450.74;218051;1281;22698;-75
2023/04/04 14:44:48;;;;;;;4.70;2.80;;;;;;;3.21;52.70;99441.01;218305;1298;22562;-76
2023/04/04 14:49:52;;;;;;;6.10;3.30;;;;;;;3.11;53.18;99437.36;218343;1301;22565;-79
2023/04/04 14:54:57;;;;;;;3.90;2.50;;;;;;;3.03;53.38;99431.23;218353;1299;24322;-78
2023/04/04 15:00:00;;;;;;;6.30;3.40;;;;;;;2.92;53.63;99430.15;218203;1300;24272;-75
2023/04/04 15:05:03;;;;;;;5.90;2.90;;;;;;;2.80;53.62;99434.58;218225;1299;23331;-76
2023/04/04 15:10:07;;;;;;;6.10;3.30;;;;;;;2.67;53.64;99431.80;218020;1299;24341;-76
2023/04/04 15:15:09;;;;;;;4.00;3.00;;;;;;;2.56;54.00;99430.85;218627;1299;25390;-76
2023/04/04 15:20:12;;;;;;;4.70;2.60;;;;;;;2.42;53.59;99432.42;218237;1290;22553;-75
2023/04/04 15:25:15;;;;;;;3.50;2.80;;;;;;;2.30;54.10;99427.86;218653;1300;24913;-76
2023/04/04 15:30:17;;;;;;;4.90;3.00;;;;;;;2.22;54.84;99430.02;218257;1280;22546;-77
2023/04/04 15:35:19;;;;;;;4.30;2.90;;;;;;;2.14;54.85;99426.84;218321;1298;22749;-76
2023/04/04 15:40:21;;;;;;;3.70;3.00;;;;;;;2.05;54.95;99428.05;218048;1301;23814;-76
2023/04/04 15:45:26;;;;;;;4.90;3.30;;;;;;;1.99;55.21;99425.53;218345;1301;24419;-76
2023/04/04 15:50:28;;;;;;;4.80;3.70;;;;;;;1.94;55.66;99424.23;218474;1299;24259;-76
2023/04/04 15:55:31;;;;;;;4.10;3.70;;;;;;;1.89;56.01;99424.27;218181;1296;25265;-76
2023/04/04 16:00:34;;;;;;;3.70;3.10;;;;;;;1.86;56.62;99422.77;218391;1287;24371;-75
2023/04/04 16:05:36;;;;;;;4.70;3.70;;;;;;;1.84;56.41;99420.31;218057;1301;22557;-76
2023/04/04 16:10:38;;;;;;;7.50;4.30;;;;;;;1.85;56.17;99418.30;217864;1301;22560;-76
2023/04/04 16:15:41;;;;;;;5.30;4.20;;;;;;;1.80;55.74;99419.55;218057;1292;23851;-77
2023/04/04 16:20:44;;;;;;;6.10;4.20;;;;;;;1.68;55.29;99419.22;218368;1283;23913;-76
2023/04/04 16:25:47;;;;;;;6.50;4.70;;;;;;;1.55;55.46;99412.80;218273;1301;25578;-76
2023/04/04 16:30:49;;;;;;;4.50;3.90;;;;;;;1.45;56.19;99424.46;218193;1300;25305;-75
2023/04/04 16:35:52;;;;;;;4.50;3.90;;;;;;;1.37;55.70;99424.71;218404;1300;22677;-76
2023/04/04 16:40:54;;;;;;;5.50;4.00;;;;;;;1.27;55.80;99424.24;218141;1290;22568;-76
2023/04/04 16:45:57;;;;;;;6.60;4.60;;;;;;;1.19;56.33;99426.95;218483;1300;22643;-76
2023/04/04 16:51:01;;;;;;;6.50;4.80;;;;;;;1.09;56.11;99432.52;218148;1301;22581;-76
2023/04/04 16:56:03;;;;;;;7.80;5.20;;;;;;;0.99;55.97;99428.75;218201;1301;22549;-76
2023/04/04 17:01:06;;;;;;;8.50;5.60;;;;;;;0.89;56.59;99428.45;218164;1283;22559;-76
2023/04/04 17:06:08;;;;;;;6.20;4.60;;;;;;;0.82;56.68;99433.98;218116;1289;24279;-77
2023/04/04 17:11:14;;;;;;;6.50;4.50;;;;;;;0.74;56.55;99444.27;218207;1301;25457;-76
2023/04/04 17:16:16;;;;;;;6.60;4.50;;;;;;;0.63;56.24;99452.79;218316;1296;22970;-76
2023/04/04 17:21:19;;;;;;;7.70;5.20;;;;;;;0.53;56.39;99454.41;218684;1301;24378;-76
2023/04/04 17:26:22;;;;;;;10.40;5.30;;;;;;;0.47;56.48;99452.27;218560;1280;24235;-76
2023/04/04 17:31:24;;;;;;;7.10;5.00;;;;;;;0.38;57.07;99456.19;218265;1286;24279;-76
2023/04/04 17:36:28;;;;;;;6.40;4.70;;;;;;;0.22;56.84;99458.16;218440;1287;22541;-75
2023/04/04 17:41:31;;;;;;;6.40;5.50;;;;;;;0.04;57.16;99458.19;218108;1301;22582;-77
2023/04/04 17:46:33;;;;;;;9.70;5.70;;;;;;;-0.12;57.45;99467.57;218154;1296;22621;-76
2023/04/04 17:51:36;;;;;;;8.60;6.00;;;;;;;-0.25;57.99;99469.16;218214;1299;24305;-77
2023/04/04 17:56:39;;;;;;;12.70;8.10;;;;;;;-0.35;58.03;99474.71;218273;1283;22661;-76
2023/04/04 18:01:41;;;;;;;13.70;8.20;;;;;;;-0.46;58.45;99480.25;218438;1293;22565;-76
2023/04/04 18:06:43;;;;;;;13.10;9.30;;;;;;;-0.56;58.55;99485.46;218106;1299;24286;-76
2023/04/04 18:11:45;;;;;;;17.60;10.00;;;;;;;-0.66;58.97;99481.24;218247;1299;24175;-76
2023/04/04 18:16:48;;;;;;;24.60;10.20;;;;;;;-0.70;59.63;99481.00;218070;1289;24415;-76
2023/04/04 18:21:53;;;;;;;16.60;8.80;;;;;;;-0.74;59.74;99476.52;218397;1298;22714;-75
2023/04/04 18:26:55;;;;;;;15.30;9.20;;;;;;;-0.82;60.05;99477.97;218487;1298;24259;-76
2023/04/04 18:32:01;;;;;;;20.40;11.10;;;;;;;-0.91;60.30;99476.48;218324;1298;22542;-76
2023/04/04 18:37:05;;;;;;;20.60;10.90;;;;;;;-0.99;60.27;99480.29;218087;1299;25594;-76
2023/04/04 18:42:09;;;;;;;17.00;11.80;;;;;;;-1.06;60.67;99481.25;218406;1293;22638;-78
2023/04/04 18:47:11;;;;;;;14.70;11.20;;;;;;;-1.13;60.72;99481.18;217949;1301;25458;-77
2023/04/04 18:52:14;;;;;;;21.10;12.70;;;;;;;-1.21;61.14;99477.53;218474;1298;22668;-77
2023/04/04 18:57:18;;;;;;;18.80;12.50;;;;;;;-1.29;61.07;99479.61;218350;1293;24138;-75
2023/04/04 19:02:21;;;;;;;19.90;12.70;;;;;;;-1.37;61.28;99481.48;218309;1299;22573;-76
2023/04/04 19:07:26;;;;;;;17.70;13.60;;;;;;;-1.43;61.68;99478.58;218539;1280;22549;-75
2023/04/04 19:12:28;;;;;;;36.30;15.80;;;;;;;-1.49;62.00;99473.64;218633;1300;22553;-76
2023/04/04 19:17:38;;;;;;;35.20;17.10;;;;;;;-1.55;62.27;99467.75;218068;1298;24432;-76
2023/04/04 19:22:41;;;;;;;24.00;13.50;;;;;;;-1.60;62.52;99469.30;218190;1296;24884;-77
2023/04/04 19:27:43;;;;;;;23.20;14.10;;;;;;;-1.66;62.83;99474.48;218020;1301;22562;-76
2023/04/04 19:32:46;;;;;;;23.20;14.20;;;;;;;-1.72;62.99;99471.08;218582;1299;25426;-75
2023/04/04 19:37:49;;;;;;;21.30;16.10;;;;;;;-1.78;63.04;99468.64;217996;1300;22562;-76
2023/04/04 19:42:52;;;;;;;21.80;14.70;;;;;;;-1.84;63.73;99465.91;218404;1298;22552;-75
2023/04/04 19:47:56;;;;;;;27.30;16.40;;;;;;;-1.89;63.53;99466.73;218668;1287;22563;-76
2023/04/04 19:52:58;;;;;;;22.80;15.80;;;;;;;-1.94;63.77;99464.83;217947;1301;22549;-76
2023/04/04 19:58:04;;;;;;;21.00;15.30;;;;;;;-2.01;64.03;99461.43;218150;1290;24762;-76
2023/04/04 20:03:06;;;;;;;25.40;19.50;;;;;;;-2.07;64.64;99468.50;218420;1296;25553;-76
2023/04/04 20:08:08;;;;;;;28.60;18.90;;;;;;;-2.13;64.70;99463.55;217968;1301;25333;-76
2023/04/04 20:13:12;;;;;;;27.70;18.50;;;;;;;-2.19;64.94;99459.41;218229;1286;22671;-77
2023/04/04 20:18:27;;;;;;;30.80;20.60;;;;;;;-2.25;65.12;99462.02;218471;1299;22608;-76
2023/04/04 20:23:30;;;;;;;33.80;21.60;;;;;;;-2.29;65.57;99461.73;218179;1301;22786;-76
2023/04/04 20:28:34;;;;;;;37.90;20.90;;;;;;;-2.30;65.95;99460.96;218545;1299;24410;-76
2023/04/04 20:33:39;;;;;;;39.30;21.10;;;;;;;-2.34;65.94;99469.10;218493;1278;22668;-75
2023/04/04 20:38:41;;;;;;;30.10;19.10;;;;;;;-2.39;66.30;99465.62;218053;1299;24237;-75
2023/04/04 20:44:02;;;;;;;29.40;16.50;;;;;;;-2.44;66.57;99468.14;218176;1296;25521;-75
2023/04/04 20:49:06;;;;;;;25.20;16.80;;;;;;;-2.49;66.79;99470.66;218281;1301;25695;-75
2023/04/04 20:54:09;;;;;;;27.00;17.80;;;;;;;-2.53;67.03;99472.11;218057;1290;25568;-76
2023/04/04 20:59:32;;;;;;;30.20;19.10;;;;;;;-2.57;67.33;99464.95;217995;1301;25461;-76
2023/04/04 21:04:35;;;;;;;28.30;19.70;;;;;;;-2.63;68.10;99467.17;218166;1287;23667;-76
2023/04/04 21:09:37;;;;;;;37.70;22.30;;;;;;;-2.67;68.38;99469.15;218408;1299;22721;-74
2023/04/04 21:14:49;;;;;;;49.70;27.30;;;;;;;-2.71;68.55;99471.60;218257;1301;22637;-76
2023/04/04 21:19:52;;;;;;;45.20;26.20;;;;;;;-2.75;69.02;99466.66;218205;1299;22636;-76
2023/04/04 21:24:55;;;;;;;56.80;31.80;;;;;;;-2.79;69.21;99466.58;218217;1299;25542;-75
2023/04/04 21:29:57;;;;;;;68.10;37.50;;;;;;;-2.84;69.54;99464.77;218274;1299;24398;-75
2023/04/04 21:35:00;;;;;;;71.00;37.80;;;;;;;-2.90;69.61;99461.65;218168;1293;22552;-75
2023/04/04 21:40:06;;;;;;;70.40;37.80;;;;;;;-2.95;70.06;99460.73;218478;1299;23110;-76
2023/04/04 21:45:09;;;;;;;64.10;37.80;;;;;;;-2.99;70.17;99456.98;218184;1301;23594;-74
2023/04/04 21:50:12;;;;;;;72.50;37.60;;;;;;;-3.02;70.58;99452.72;218150;1301;24391;-73
2023/04/04 21:55:16;;;;;;;89.70;47.00;;;;;;;-3.02;71.17;99448.92;218226;1301;22715;-74
2023/04/04 22:00:19;;;;;;;101.80;51.60;;;;;;;-3.00;71.41;99442.10;218037;1301;22664;-74
2023/04/04 22:05:21;;;;;;;103.00;54.40;;;;;;;-3.00;71.48;99437.96;218421;1300;24476;-74
2023/04/04 22:10:44;;;;;;;82.30;46.30;;;;;;;-3.01;71.55;99435.58;218235;1301;22756;-73
2023/04/04 22:15:46;;;;;;;90.00;47.70;;;;;;;-3.04;71.64;99428.33;217979;1287;22815;-73
2023/04/04 22:20:53;;;;;;;93.10;47.10;;;;;;;-3.06;71.58;99426.05;217732;1299;199179;-73
2023/04/04 22:25:57;;;;;;;84.90;44.20;;;;;;;-3.11;71.48;99427.88;218214;1291;23997;-73
2023/04/04 22:31:00;;;;;;;85.00;44.70;;;;;;;-3.16;71.54;99426.64;217835;1301;24277;-74
2023/04/04 22:36:04;;;;;;;88.20;44.60;;;;;;;-3.22;71.51;99425.88;217995;1301;23009;-73
2023/04/04 22:41:06;;;;;;;77.10;41.90;;;;;;;-3.26;71.24;99426.29;218096;1284;22928;-73
2023/04/04 22:46:08;;;;;;;68.10;38.40;;;;;;;-3.31;71.62;99420.74;218327;1299;24092;-72
2023/04/04 22:51:13;;;;;;;58.00;33.70;;;;;;;-3.38;71.77;99419.23;218113;1297;22606;-74
2023/04/04 22:56:16;;;;;;;55.90;30.00;;;;;;;-3.47;71.82;99414.59;218130;1278;24204;-74
2023/04/04 23:01:19;;;;;;;63.90;36.50;;;;;;;-3.54;72.04;99413.04;217963;1301;22707;-72
2023/04/04 23:06:22;;;;;;;77.70;42.10;;;;;;;-3.59;72.10;99410.73;217911;1288;22616;-75
2023/04/04 23:11:26;;;;;;;69.80;37.00;;;;;;;-3.59;72.29;99402.50;217778;1300;24281;-74
2023/04/04 23:16:28;;;;;;;80.00;41.90;;;;;;;-3.62;72.37;99399.04;218521;1285;23847;-73
2023/04/04 23:21:30;;;;;;;82.50;42.30;;;;;;;-3.65;72.67;99395.05;217958;1300;24444;-73
2023/04/04 23:26:32;;;;;;;80.10;41.80;;;;;;;-3.66;73.02;99394.47;218072;1300;23243;-73
2023/04/04 23:31:35;;;;;;;74.50;40.50;;;;;;;-3.69;72.95;99395.48;218098;1300;22675;-72
2023/04/04 23:36:37;;;;;;;79.60;41.30;;;;;;;-3.73;73.17;99389.01;218528;1280;22594;-73